地図

経路データ

SID SEASON NUMBER BASIN SUBBASIN NAME ISO_TIME NATURE LAT LON WMO_WIND WMO_PRES WMO_AGENCY TRACK_TYPE DIST2LAND LANDFALL IFLAG USA_AGENCY USA_ATCF_ID USA_LAT USA_LON USA_RECORD USA_STATUS USA_WIND USA_PRES USA_SSHS USA_R34_NE USA_R34_SE USA_R34_SW USA_R34_NW USA_R50_NE USA_R50_SE USA_R50_SW USA_R50_NW USA_R64_NE USA_R64_SE USA_R64_SW USA_R64_NW USA_POCI USA_ROCI USA_RMW USA_EYE TOKYO_LAT TOKYO_LON TOKYO_GRADE TOKYO_WIND TOKYO_PRES TOKYO_R50_DIR TOKYO_R50_LONG TOKYO_R50_SHORT TOKYO_R30_DIR TOKYO_R30_LONG TOKYO_R30_SHORT TOKYO_LAND CMA_LAT CMA_LON CMA_CAT CMA_WIND CMA_PRES HKO_LAT HKO_LON HKO_CAT HKO_WIND HKO_PRES NEWDELHI_LAT NEWDELHI_LON NEWDELHI_GRADE NEWDELHI_WIND NEWDELHI_PRES NEWDELHI_CI NEWDELHI_DP NEWDELHI_POCI REUNION_LAT REUNION_LON REUNION_TYPE REUNION_WIND REUNION_PRES REUNION_TNUM REUNION_CI REUNION_RMW REUNION_R34_NE REUNION_R34_SE REUNION_R34_SW REUNION_R34_NW REUNION_R50_NE REUNION_R50_SE REUNION_R50_SW REUNION_R50_NW REUNION_R64_NE REUNION_R64_SE REUNION_R64_SW REUNION_R64_NW BOM_LAT BOM_LON BOM_TYPE BOM_WIND BOM_PRES BOM_TNUM BOM_CI BOM_RMW BOM_R34_NE BOM_R34_SE BOM_R34_SW BOM_R34_NW BOM_R50_NE BOM_R50_SE BOM_R50_SW BOM_R50_NW BOM_R64_NE BOM_R64_SE BOM_R64_SW BOM_R64_NW BOM_ROCI BOM_POCI BOM_EYE BOM_POS_METHOD BOM_PRES_METHOD NADI_LAT NADI_LON NADI_CAT NADI_WIND NADI_PRES WELLINGTON_LAT WELLINGTON_LON WELLINGTON_WIND WELLINGTON_PRES DS824_LAT DS824_LON DS824_STAGE DS824_WIND DS824_PRES TD9636_LAT TD9636_LON TD9636_STAGE TD9636_WIND TD9636_PRES TD9635_LAT TD9635_LON TD9635_WIND TD9635_PRES TD9635_ROCI NEUMANN_LAT NEUMANN_LON NEUMANN_CLASS NEUMANN_WIND NEUMANN_PRES MLC_LAT MLC_LON MLC_CLASS MLC_WIND MLC_PRES USA_GUST BOM_GUST BOM_GUST_PER REUNION_GUST REUNION_GUST_PER USA_SEAHGT USA_SEARAD_NE USA_SEARAD_SE USA_SEARAD_SW USA_SEARAD_NW STORM_SPEED STORM_DIR
1993327S07093 1994 91 SI WA BETTINA 1993-11-22 12:00:00 TS -7.20000 92.7000 main 923 923 O___________O_ jtwc_sh SH021994 -7.20000 92.7000 15 -1 -7.20000 92.7000 TC 15 8 187
1993327S07093 1994 91 SI WA BETTINA 1993-11-22 15:00:00 TS -7.59500 92.6625 main 953 953 P___________P_ SH021994 -7.59500 92.6625 15 -1 -7.59500 92.6625 TC 15 8 187
1993327S07093 1994 91 SI WA BETTINA 1993-11-22 18:00:00 TS -8.00000 92.6000 main 993 993 O___________O_ jtwc_sh SH021994 -8.00000 92.6000 15 -1 -8.00000 92.6000 TC 15 9 191
1993327S07093 1994 91 SI WA BETTINA 1993-11-22 21:00:00 TS -8.42751 92.5000 main 1032 1032 P___________P_ SH021994 -8.42751 92.5000 15 -1 -8.42751 92.5000 TC 15 9 192
1993327S07093 1994 91 SI WA BETTINA 1993-11-23 00:00:00 TS -8.90000 92.4000 main 1081 1081 O___________O_ jtwc_sh SH021994 -8.90000 92.4000 15 -1 -8.90000 92.4000 TC 15 10 189
1993327S07093 1994 91 SI WA BETTINA 1993-11-23 03:00:00 TS -9.44250 92.3425 main 1130 1130 P___________P_ SH021994 -9.44250 92.3425 17 -1 -9.44250 92.3425 TC 17 11 185
1993327S07093 1994 91 SI WA BETTINA 1993-11-23 06:00:00 TS -10.0000 92.3000 main 1182 1182 O___________O_ jtwc_sh SH021994 -10.0000 92.3000 20 -1 -10.0000 92.3000 TC 20 11 184
1993327S07093 1994 91 SI WA BETTINA 1993-11-23 09:00:00 TS -10.5450 92.2500 main 1226 1226 P___________P_ SH021994 -10.5450 92.2500 20 -1 -10.5450 92.2500 TC 20 10 186
1993327S07093 1994 91 SI WA BETTINA 1993-11-23 12:00:00 TS -11.0000 92.2000 main 1278 1278 O___________O_ jtwc_sh SH021994 -11.0000 92.2000 20 -1 -11.0000 92.2000 TC 20 7 186
1993327S07093 1994 91 SI WA BETTINA 1993-11-23 15:00:00 TS -11.2650 92.1649 main 1305 1305 P___________P_ SH021994 -11.2650 92.1649 20 -1 -11.2650 92.1649 TC 20 5 191
1993327S07093 1994 91 SI WA BETTINA 1993-11-23 18:00:00 TS -11.5000 92.1000 main 1330 1330 O___________O_ jtwc_sh SH021994 -11.5000 92.1000 20 -1 -11.5000 92.1000 TC 20 6 191
1993327S07093 1994 91 SI WA BETTINA 1993-11-23 21:00:00 TS -11.8847 92.0472 main 1373 1373 P___________P_ SH021994 -11.8847 92.0472 20 -1 -11.8847 92.0472 TC 20 9 200
1993327S07093 1994 91 SI WA BETTINA 1993-11-24 00:00:00 TS -12.3000 91.8000 main 1422 1422 O___________O_ jtwc_sh SH021994 -12.3000 91.8000 20 -1 -12.3000 91.8000 TC 20 12 228
1993327S07093 1994 91 SI WA BETTINA 1993-11-24 03:00:00 TS -12.6730 91.1528 main 1496 1496 P___________P_ SH021994 -12.6730 91.1528 20 -1 -12.6730 91.1528 TC 20 15 243
1993327S07093 1994 91 SI WA BETTINA 1993-11-24 06:00:00 TS -13.0000 90.4000 main 1574 1574 O___________O_ jtwc_sh SH021994 -13.0000 90.4000 20 -1 -13.0000 90.4000 TC 20 14 244
1993327S07093 1994 91 SI MM BETTINA 1993-11-24 09:00:00 TS -13.2795 89.8997 main 1634 1634 P___________P_ SH021994 -13.2795 89.8997 20 -1 -13.2795 89.8997 TC 20 11 243
1993327S07093 1994 91 SI MM BETTINA 1993-11-24 12:00:00 TS -13.5000 89.4000 main 1685 1685 O___________O_ jtwc_sh SH021994 -13.5000 89.4000 20 -1 -13.5000 89.4000 TC 20 12 248
1993327S07093 1994 91 SI MM BETTINA 1993-11-24 15:00:00 TS -13.7250 88.7379 main 1751 1751 P___________P_ SH021994 -13.7250 88.7379 22 -1 -13.7250 88.7379 TC 22 14 258
1993327S07093 1994 91 SI MM BETTINA 1993-11-24 18:00:00 TS -13.8000 88.0000 main 1810 1810 O___________O_ jtwc_sh SH021994 -13.8000 88.0000 25 -1 -13.8000 88.0000 TC 25 15 274
1993327S07093 1994 91 SI MM BETTINA 1993-11-24 21:00:00 TS -13.6101 87.2270 main 1853 1853 P___________P_ SH021994 -13.6101 87.2270 25 -1 -13.6101 87.2270 TC 25 15 289
1993327S07093 1994 91 SI MM BETTINA 1993-11-25 00:00:00 TS -13.3000 86.5000 main 1885 1885 O___________O_ jtwc_sh SH021994 -13.3000 86.5000 25 -1 -13.3000 86.5000 TC 25 14 293
1993327S07093 1994 91 SI MM BETTINA 1993-11-25 03:00:00 TS -13.0572 85.9127 main 1918 1911 P___________P_ SH021994 -13.0572 85.9127 25 -1 -13.0572 85.9127 TC 25 12 295
1993327S07093 1994 91 SI MM BETTINA 1993-11-25 06:00:00 TS -12.8000 85.4000 main 1939 1939 O___________O_ jtwc_sh SH021994 -12.8000 85.4000 25 -1 -12.8000 85.4000 TC 25 11 300
1993327S07093 1994 91 SI MM BETTINA 1993-11-25 09:00:00 TS -12.4848 84.9075 main 1961 1961 P___________P_ SH021994 -12.4848 84.9075 25 -1 -12.4848 84.9075 TC 25 11 302
1993327S07093 1994 91 SI MM BETTINA 1993-11-25 12:00:00 TS -12.2000 84.4000 main 1985 1985 O___________O_ jtwc_sh SH021994 -12.2000 84.4000 25 -1 -12.2000 84.4000 TC 25 12 294
1993327S07093 1994 91 SI MM BETTINA 1993-11-25 15:00:00 TS -12.0050 83.8150 main 2026 2016 P___________P_ SH021994 -12.0050 83.8150 27 -1 -12.0050 83.8150 TC 27 12 286
1993327S07093 1994 91 SI MM BETTINA 1993-11-25 18:00:00 TS -11.8889 83.2556 28 997 reunion main 2016 2007 O____O______O_ jtwc_sh SH021994 -11.9000 83.2000 30 -1 -11.8000 83.7000 2 28 997 2.50000 2.50000 -11.9000 83.2000 TC 30 11 277
1993327S07093 1994 91 SI MM BETTINA 1993-11-25 21:00:00 TS -11.8625 82.6865 main 2007 2002 P____P______P_ SH021994 -11.8550 82.5850 32 -1 -11.8928 83.0926 2 29 996 -11.8550 82.5850 TC 32 11 268
1993327S07093 1994 91 SI MM BETTINA 1993-11-26 00:00:00 TS -11.9273 82.1364 30 995 reunion main 2001 2000 O____O______O_ jtwc_sh SH021994 -11.9000 82.0000 35 0 -12.0000 82.5000 2 30 995 2.50000 2.50000 -11.9000 82.0000 TC 35 11 260
1993327S07093 1994 91 SI MM BETTINA 1993-11-26 03:00:00 TS -12.0532 81.6250 main 2019 2018 P____P______P_ SH021994 -12.0124 81.4700 35 0 -12.1349 81.9350 2 32 993 -12.0124 81.4700 TC 35 10 253
1993327S07093 1994 91 SI MM BETTINA 1993-11-26 06:00:00 TS -12.2333 81.1333 35 992 reunion main 2028 2028 O____O______O_ jtwc_sh SH021994 -12.2000 81.0000 35 0 -12.3000 81.4000 3 35 992 3.00000 3.00000 -12.2000 81.0000 TC 35 10 247
1993327S07093 1994 91 SI MM BETTINA 1993-11-26 09:00:00 TS -12.4515 80.6825 main 2061 2061 P____P______P_ SH021994 -12.4349 80.5700 37 0 -12.4848 80.9074 3 35 992 -12.4349 80.5700 TC 37 10 241
1993327S07093 1994 91 SI MM BETTINA 1993-11-26 12:00:00 TS -12.7000 80.2667 35 992 reunion main 2084 2084 O____O______O_ jtwc_sh SH021994 -12.7000 80.2000 40 0 -12.7000 80.4000 3 35 992 3.00000 3.00000 -12.7000 80.2000 TC 40 9 239
1993327S07093 1994 91 SI MM BETTINA 1993-11-26 15:00:00 TS -12.9375 79.8541 main 2107 2107 P____P______P_ SH021994 -12.9424 79.8849 40 0 -12.9276 79.7924 3 37 989 -12.9424 79.8849 TC 42 9 237
1993327S07093 1994 91 SI MM BETTINA 1993-11-26 18:00:00 TS -13.2000 79.4667 40 986 reunion main 2143 2143 O____O______O_ jtwc_sh SH021994 -13.2000 79.6000 40 0 -13.2000 79.2000 3 40 986 3.50000 3.50000 -13.2000 79.6000 TC 45 9 232
1993327S07093 1994 91 SI MM BETTINA 1993-11-26 21:00:00 TS -13.5066 79.1066 main 2179 2179 P____P______P_ SH021994 -13.4924 79.3074 42 0 -13.5349 78.7050 3 42 984 -13.4924 79.3074 TC 47 9 227
1993327S07093 1994 91 SI MM BETTINA 1993-11-27 00:00:00 TS -13.8333 78.7667 45 982 reunion main 2216 2216 O____O______O_ jtwc_sh SH021994 -13.8000 79.0000 45 0 -13.9000 78.3000 3 45 982 3.50000 3.50000 -13.8000 79.0000 TC 50 9 226
1993327S07093 1994 91 SI MM BETTINA 1993-11-27 03:00:00 TS -14.1450 78.4183 main 2253 2251 P____P______P_ SH021994 -14.0925 78.6499 45 0 -14.2499 77.9549 3 48 979 -14.0925 78.6499 TC 55 9 226
1993327S07093 1994 91 SI MM BETTINA 1993-11-27 06:00:00 TS -14.4667 78.1000 52 976 reunion main 2247 2206 O____O______O_ jtwc_sh SH021994 -14.4000 78.3000 45 0 -14.6000 77.7000 3 52 976 4.00000 4.00000 -14.4000 78.3000 TC 60 9 221
1993327S07093 1994 91 SI MM BETTINA 1993-11-27 09:00:00 TS -14.8092 77.8175 main 2206 2175 P____P______P_ SH021994 -14.7425 77.9700 47 0 -14.9425 77.5124 3 56 973 -14.7425 77.9700 TC 67 9 215
1993327S07093 1994 91 SI MM BETTINA 1993-11-27 12:00:00 TS -15.1667 77.6000 60 970 reunion main 2171 2151 O____O______O_ jtwc_sh SH021994 -15.1000 77.7000 50 0 -15.3000 77.4000 3 60 970 4.50000 4.50000 -15.1000 77.7000 TC 75 970 8 206
1993327S07093 1994 91 SI MM BETTINA 1993-11-27 15:00:00 TS -15.5233 77.4532 main 2151 2127 P____P______P_ SH021994 -15.4350 77.5124 52 0 -15.7000 77.3349 3 60 970 -15.4350 77.5124 TC 75 970 8 197
1993327S07093 1994 91 SI MM BETTINA 1993-11-27 18:00:00 TS -15.9000 77.3667 60 970 reunion main 2127 2105 O____O______O_ jtwc_sh SH021994 -15.8000 77.4000 55 0 -16.1000 77.3000 3 60 970 4.50000 4.50000 -15.8000 77.4000 TC 75 970 8 188
1993327S07093 1994 91 SI MM BETTINA 1993-11-27 21:00:00 TS -16.3316 77.3315 main 2105 2094 P____P______P_ SH021994 -16.2575 77.3573 52 0 -16.4799 77.2799 3 59 970 -16.2575 77.3573 TC 67 8 187
1993327S07093 1994 91 SI MM BETTINA 1993-11-28 00:00:00 TS -16.7333 77.2667 58 970 reunion main 2094 2065 O____O______O_ jtwc_sh SH021994 -16.7000 77.3000 50 0 -16.8000 77.2000 3 58 970 4.00000 4.50000 -16.7000 77.3000 TC 60 8 198
1993327S07093 1994 91 SI MM BETTINA 1993-11-28 03:00:00 TS -17.0424 77.0975 main 2065 2037 P____P______P_ SH021994 -17.0449 77.1525 47 0 -17.0375 76.9875 3 55 973 -17.0449 77.1525 TC 52 7 218
1993327S07093 1994 91 SI MM BETTINA 1993-11-28 06:00:00 TS -17.2667 76.8333 52 976 reunion main 2026 1993 O____O______O_ jtwc_sh SH021994 -17.3000 76.9000 45 0 -17.2000 76.7000 3 52 976 3.50000 4.00000 -17.3000 76.9000 TC 45 7 236
1993327S07093 1994 91 SI MM BETTINA 1993-11-28 09:00:00 TS -17.4275 76.4916 main 1993 1949 P____P______P_ SH021994 -17.4801 76.5300 42 0 -17.3225 76.4149 3 48 979 -17.4801 76.5300 TC 42 8 249
1993327S07093 1994 91 SI MM BETTINA 1993-11-28 12:00:00 TS -17.5333 76.1000 45 982 reunion main 1949 1905 O____O______O_ jtwc_sh SH021994 -17.6000 76.1000 40 0 -17.4000 76.1000 3 45 982 3.00000 3.50000 -17.6000 76.1000 TC 40 8 255
1993327S07093 1994 91 SI MM BETTINA 1993-11-28 15:00:00 TS -17.6266 75.7141 main 1905 1872 P____P______P_ SH021994 -17.7150 75.6925 37 0 -17.4500 75.7574 3 42 984 -17.7150 75.6925 TC 37 8 257
1993327S07093 1994 91 SI MM BETTINA 1993-11-28 18:00:00 TS -17.7000 75.3333 40 986 reunion main 1861 1828 O____O______O_ jtwc_sh SH021994 -17.8000 75.3000 35 0 -17.5000 75.4000 3 40 986 2.50000 3.50000 -17.8000 75.3000 TC 35 7 259
1993327S07093 1994 91 SI MM BETTINA 1993-11-28 21:00:00 TS -17.7666 74.9783 main 1828 1797 P____P______P_ SH021994 -17.8499 74.9424 35 0 -17.5999 75.0500 3 38 988 -17.8499 74.9424 TC 35 7 259
1993327S07093 1994 91 SI MM BETTINA 1993-11-29 00:00:00 TS -17.8333 74.6333 36 990 reunion main 1786 1753 O____O______O_ jtwc_sh SH021994 -17.9000 74.6000 35 0 -17.7000 74.7000 3 36 990 2.00000 3.00000 -17.9000 74.6000 TC 35 7 258
1993327S07093 1994 91 SI MM BETTINA 1993-11-29 03:00:00 TS -17.9066 74.2858 main 1753 1720 P____P______P_ SH021994 -17.9999 74.2500 35 0 -17.7199 74.3572 3 35 991 -17.9999 74.2500 TC 35 7 257
1993327S07093 1994 91 SI MM BETTINA 1993-11-29 06:00:00 TS -17.9800 73.9400 35 992 reunion main 1709 1676 O____O______O_ jtwc_sh SH021994 -18.1000 73.9000 35 0 -17.8000 74.0000 3 35 992 2.00000 3.00000 -18.1000 73.9000 TC 35 7 253
1993327S07093 1994 91 SI MM BETTINA 1993-11-29 09:00:00 TS -18.1201 73.5677 main 1676 1630 P____P______P_ SH021994 -18.1626 73.5500 32 -1 -18.0776 73.5853 3 31 994 -18.1626 73.5500 TC 32 8 243
1993327S07093 1994 91 SI MM BETTINA 1993-11-29 12:00:00 TS -18.3333 73.2000 28 997 reunion main 1630 1594 O____O______O_ jtwc_sh SH021994 -18.2000 73.2000 30 -1 -18.4000 73.2000 2 28 997 2.00000 2.50000 -18.2000 73.2000 TC 30 8 231
1993327S07093 1994 91 SI MM BETTINA 1993-11-29 15:00:00 TS -18.6074 72.9272 main 1594 1569 _____P________ SH021994 -1 -18.6074 72.9272 2 28 997 TC 7 225
1993327S07093 1994 91 SI MM BETTINA 1993-11-29 18:00:00 TS -18.8000 72.7000 28 997 reunion main 1569 1545 _____O________ -1 -18.8000 72.7000 2 28 997 2.00000 2.50000 6 226
1993327S07093 1994 91 SI MM BETTINA 1993-11-29 21:00:00 TS -19.0349 72.4574 main 1545 1510 _____P________ -1 -19.0349 72.4574 2 26 998 7 223
1993327S07093 1994 91 SI MM BETTINA 1993-11-30 00:00:00 TS -19.3000 72.2000 25 1000 reunion main 1510 1475 _____O________ -1 -19.3000 72.2000 2 25 1000 1.50000 2.00000 8 223
1993327S07093 1994 91 SI MM BETTINA 1993-11-30 03:00:00 TS -19.5850 71.9074 main 1475 1441 _____P________ -1 -19.5850 71.9074 2 25 1000 8 223
1993327S07093 1994 91 SI MM BETTINA 1993-11-30 06:00:00 TS -19.9000 71.6000 25 1000 reunion main 1441 1407 _____O________ -1 -19.9000 71.6000 2 25 1000 1.50000 2.00000 9 221
1993327S07093 1994 91 SI MM BETTINA 1993-11-30 09:00:00 TS -20.2499 71.2999 main 1407 1375 _____P________ -1 -20.2499 71.2999 2 22 1002 9 219
1993327S07093 1994 91 SI MM BETTINA 1993-11-30 12:00:00 TS -20.6000 71.0000 20 1004 reunion main 1375 1343 _____O________ -1 -20.6000 71.0000 2 20 1004 1.50000 1.50000 9 221
1993327S07093 1994 91 SI MM BETTINA 1993-11-30 15:00:00 TS -20.9074 70.6998 main 1343 1313 _____P________ -1 -20.9074 70.6998 2 20 1004 8 223
1993327S07093 1994 91 SI MM BETTINA 1993-11-30 18:00:00 TS -21.2000 70.4000 20 1004 reunion main 1313 1284 _____O________ -1 -21.2000 70.4000 2 20 1004 1.50000 1.50000 8 223
1993327S07093 1994 91 SI MM BETTINA 1993-11-30 21:00:00 TS -21.5074 70.0999 main 1284 1255 _____P________ -1 -21.5074 70.0999 2 22 1002 8 223
1993327S07093 1994 91 SI MM BETTINA 1993-12-01 00:00:00 TS -21.8000 69.8000 25 1000 reunion main 1255 1227 _____O________ -1 -21.8000 69.8000 2 25 1000 2.00000 2.00000 8 226
1993327S07093 1994 91 SI MM BETTINA 1993-12-01 03:00:00 TS -22.0650 69.4850 main 1228 1201 _____P________ -1 -22.0650 69.4850 2 27 998 8 228
1993327S07093 1994 91 SI MM BETTINA 1993-12-01 06:00:00 TS -22.3000 69.2000 30 997 reunion main 1201 1184 _____O________ -1 -22.3000 69.2000 2 30 997 2.50000 2.50000 6 224
1993327S07093 1994 91 SI MM BETTINA 1993-12-01 09:00:00 TS -22.5148 69.0073 main 1184 1168 _____P________ -1 -22.5148 69.0073 2 31 996 5 223
1993327S07093 1994 91 SI MM BETTINA 1993-12-01 12:00:00 TS -22.7000 68.8000 32 995 reunion main 1168 1140 _____O________ -1 -22.7000 68.8000 2 32 995 2.50000 2.50000 6 234
1993327S07093 1994 91 SI MM BETTINA 1993-12-01 15:00:00 TS -22.8801 68.4576 main 1143 1105 _____P________ -1 -22.8801 68.4576 2 31 996 7 245
1993327S07093 1994 91 SI MM BETTINA 1993-12-01 18:00:00 TS -23.0000 68.1000 30 997 reunion main 1105 1076 _____O________ -1 -23.0000 68.1000 2 30 997 2.00000 2.50000 6 255
1993327S07093 1994 91 SI MM BETTINA 1993-12-01 21:00:00 TS -23.0374 67.8274 main 1076 1056 _____P________ -1 -23.0374 67.8274 2 27 998 5 270
1993327S07093 1994 91 SI MM BETTINA 1993-12-02 00:00:00 TS -23.0000 67.6000 25 1000 reunion main 1056 1033 _____O________ -1 -23.0000 67.6000 2 25 1000 1.50000 2.00000 4 287
1993327S07093 1994 91 SI MM BETTINA 1993-12-02 03:00:00 TS -22.9126 67.3950 main 1033 1011 _____P________ -1 -22.9126 67.3950 2 25 1001 4 298
1993327S07093 1994 91 SI MM BETTINA 1993-12-02 06:00:00 TS -22.8000 67.2000 25 1002 reunion main 1011 _____O________ -1 -22.8000 67.2000 6 25 1002 1.50000 2.00000 4 302

IBTrACS Databaseについて

本データベースは、米国NOAAが公開する1842年以降の世界の熱帯低気圧のベストトラックデータアーカイブInternational Best Track Archive for Climate Stewardship (IBTrACS)を、ウェブで閲覧しやすい形式に変換したものです。

最終更新日:2021-11-26